Time;durP1;ratioP1;P1;durP2;ratioP2;P2;SDS_P1;SDS_P2;PMS_P1;PMS_P2;Temp;Humidity;BMP_temperature;BMP_pressure;BME280_temperature;BME280_humidity;BME280_pressure;Samples;Min_cycle;Max_cycle;Signal;HPM_P1;HPM_P2
2021/11/19 00:00:37;;;;;;;25.08;13.13;;;;;;;8.25;91.14;100669.11;1645717;83;25802;-83
2021/11/19 00:03:06;;;;;;;27.27;12.55;;;;;;;8.21;91.61;100665.13;1667689;84;25853;-83
2021/11/19 00:05:34;;;;;;;22.70;12.98;;;;;;;8.18;91.75;100665.45;1643067;84;27515;-83
2021/11/19 00:08:01;;;;;;;29.50;14.03;;;;;;;8.17;91.86;100658.47;1701050;83;26076;-83
2021/11/19 00:10:28;;;;;;;22.73;13.38;;;;;;;8.14;92.46;100652.12;1604106;84;26021;-83
2021/11/19 00:12:55;;;;;;;24.60;13.70;;;;;;;8.08;92.93;100644.31;1626694;84;25817;-82
2021/11/19 00:15:23;;;;;;;17.85;12.82;;;;;;;8.05;93.49;100640.63;1641482;84;26327;-83
2021/11/19 00:17:50;;;;;;;27.20;14.83;;;;;;;8.01;93.89;100643.31;1665956;84;27016;-83
2021/11/19 00:20:27;;;;;;;26.05;13.60;;;;;;;7.98;93.47;100643.64;1614066;84;25972;-82
2021/11/19 00:22:51;;;;;;;27.42;14.25;;;;;;;7.95;94.15;100634.66;1661029;84;26053;-83
2021/11/19 00:25:18;;;;;;;23.42;12.07;;;;;;;7.94;93.86;100626.80;1636166;84;25960;-84
2021/11/19 00:27:46;;;;;;;22.82;13.20;;;;;;;7.95;94.14;100635.15;1665618;84;26144;-82
2021/11/19 00:30:17;;;;;;;31.30;14.00;;;;;;;7.94;93.96;100643.64;1612585;84;28194;-83
2021/11/19 00:32:45;;;;;;;22.40;13.00;;;;;;;7.96;94.06;100642.13;1605439;84;25431;-83
2021/11/19 00:35:14;;;;;;;24.25;14.90;;;;;;;7.94;94.21;100640.97;1633924;84;25767;-83
2021/11/19 00:37:43;;;;;;;28.85;15.58;;;;;;;7.94;94.53;100635.64;1671262;84;25808;-83
2021/11/19 00:40:15;;;;;;;24.10;13.60;;;;;;;7.94;94.70;100628.13;1626868;84;25384;-82
2021/11/19 00:42:42;;;;;;;22.77;13.03;;;;;;;7.91;94.96;100634.66;1664279;84;27480;-84
2021/11/19 00:45:10;;;;;;;23.05;13.58;;;;;;;7.88;95.17;100621.66;1620122;84;26652;-83
2021/11/19 00:47:37;;;;;;;19.67;13.70;;;;;;;7.86;95.59;100622.81;1660378;84;25643;-83
2021/11/19 00:50:08;;;;;;;23.57;14.73;;;;;;;7.86;95.27;100617.48;1645242;84;25720;-83
2021/11/19 00:52:35;;;;;;;;;;;;;;;7.87;95.64;100611.97;1640890;84;25782;-83
2021/11/19 00:55:05;;;;;;;23.92;13.70;;;;;;;7.83;95.75;100610.65;1615683;84;27349;-83
2021/11/19 00:57:32;;;;;;;21.60;13.43;;;;;;;7.80;96.24;100617.14;1661153;84;25842;-83
2021/11/19 00:59:59;;;;;;;22.93;13.35;;;;;;;7.80;96.24;100611.81;1663477;84;25946;-83
2021/11/19 01:02:27;;;;;;;21.68;13.62;;;;;;;7.80;96.33;100605.14;1609491;84;25962;-83
2021/11/19 01:04:56;;;;;;;18.82;13.40;;;;;;;7.80;96.29;100603.00;1614524;84;26159;-84
2021/11/19 01:07:25;;;;;;;18.57;12.63;;;;;;;7.77;96.60;100598.84;1632746;84;28382;-82
2021/11/19 01:09:58;;;;;;;16.37;11.50;;;;;;;7.76;97.13;100605.16;1661129;84;25877;-82
2021/11/19 01:12:29;;;;;;;16.10;11.93;;;;;;;7.76;97.21;100595.82;1660936;84;26307;-84
2021/11/19 01:15:01;;;;;;;16.73;11.53;;;;;;;7.74;97.49;100598.35;1617790;84;26361;-83
2021/11/19 01:17:34;;;;;;;18.62;12.07;;;;;;;7.74;97.72;100600.49;1656229;84;26521;-83
2021/11/19 01:20:09;;;;;;;19.62;13.20;;;;;;;7.73;97.55;100591.34;1656886;84;28397;-83
2021/11/19 01:22:40;;;;;;;21.07;13.10;;;;;;;7.73;97.44;100587.34;1661498;84;25460;-82
2021/11/19 01:25:09;;;;;;;;;;;;;;;7.74;97.60;100603.16;1617810;84;25680;-83
2021/11/19 01:27:36;;;;;;;19.02;12.47;;;;;;;7.75;97.67;100583.51;1660424;84;26093;-83
2021/11/19 01:30:11;;;;;;;16.35;12.58;;;;;;;7.74;97.92;100572.50;1660855;84;25859;-81
2021/11/19 01:32:39;;;;;;;19.52;11.63;;;;;;;7.74;98.11;100578.36;1647743;84;27488;-83
2021/11/19 01:35:09;;;;;;;15.18;12.82;;;;;;;7.75;98.32;100580.84;1613483;84;26553;-84
2021/11/19 01:37:49;;;;;;;17.82;12.63;;;;;;;7.75;98.20;100586.17;1609455;84;25883;-82
2021/11/19 01:40:26;;;;;;;16.82;11.45;;;;;;;7.74;98.63;100589.83;1656859;84;25983;-82
2021/11/19 01:42:59;;;;;;;15.65;12.65;;;;;;;7.74;98.70;100596.50;1642596;84;25418;-83
2021/11/19 01:45:31;;;;;;;;;;;;;;;7.75;99.02;100606.66;1633615;84;26989;-84
2021/11/19 01:47:59;;;;;;;17.12;12.37;;;;;;;7.75;98.74;100591.51;1657311;84;25951;-83
2021/11/19 01:50:37;;;;;;;15.05;11.95;;;;;;;7.75;98.70;100589.34;1642251;84;26331;-82
2021/11/19 01:53:18;;;;;;;15.63;12.95;;;;;;;7.76;99.00;100584.34;1620825;84;25879;-82
2021/11/19 01:56:04;;;;;;;;;;;;;;;7.76;98.77;100583.83;1661327;84;25637;-82
2021/11/19 01:58:43;;;;;;;12.23;10.75;;;;;;;7.76;99.14;100573.16;1661353;84;27700;-83
2021/11/19 02:01:17;;;;;;;11.55;10.30;;;;;;;7.76;99.28;100592.34;1662141;84;26703;-82
2021/11/19 02:03:51;;;;;;;12.15;10.40;;;;;;;7.77;99.25;100586.84;1626884;84;26484;-82
2021/11/19 02:06:29;;;;;;;11.03;9.78;;;;;;;7.78;99.54;100576.48;1646033;84;25916;-84
2021/11/19 02:09:00;;;;;;;12.23;10.50;;;;;;;7.81;99.01;100576.66;1666552;84;25867;-84
2021/11/19 02:11:54;;;;;;;14.05;10.78;;;;;;;7.83;99.18;100580.51;1649156;84;27564;-83
2021/11/19 02:14:49;;;;;;;13.72;10.15;;;;;;;7.83;99.29;100573.31;1616891;84;25982;-83
2021/11/19 02:17:16;;;;;;;12.13;10.13;;;;;;;7.85;98.90;100569.98;1668504;84;25887;-82
2021/11/19 02:19:48;;;;;;;11.48;9.38;;;;;;;7.86;99.44;100567.66;1646058;84;25882;-82
2021/11/19 02:22:21;;;;;;;13.18;10.25;;;;;;;7.87;99.11;100568.50;1677729;84;26379;-82
2021/11/19 02:24:56;;;;;;;12.10;10.28;;;;;;;7.88;99.14;100570.14;1665178;84;28349;-84
2021/11/19 02:27:39;;;;;;;11.73;9.90;;;;;;;7.88;99.19;100558.98;1656197;84;25938;-83
2021/11/19 02:30:21;;;;;;;12.13;9.63;;;;;;;7.88;99.54;100566.14;1685418;83;25991;-81
2021/11/19 02:32:58;;;;;;;13.13;9.80;;;;;;;7.87;99.55;100566.64;1644549;84;26056;-83
2021/11/19 02:35:31;;;;;;;11.57;8.90;;;;;;;7.87;99.36;100574.64;1670914;84;25968;-83
2021/11/19 02:38:06;;;;;;;10.53;8.88;;;;;;;7.88;99.72;100576.31;1667066;84;27576;-82
2021/11/19 02:40:38;;;;;;;11.75;10.20;;;;;;;7.88;100.00;100570.14;1663809;84;26622;-84
2021/11/19 02:43:11;;;;;;;11.05;9.40;;;;;;;7.87;99.85;100572.50;1645709;84;25740;-82
2021/11/19 02:45:46;;;;;;;11.53;8.88;;;;;;;7.88;100.00;100580.31;1666078;84;25789;-82
2021/11/19 02:48:22;;;;;;;11.80;9.20;;;;;;;7.88;100.00;100574.98;1644940;84;25345;-83
2021/11/19 02:50:52;;;;;;;9.20;8.28;;;;;;;7.88;100.00;100567.48;1668316;84;28680;-82
2021/11/19 02:53:20;;;;;;;12.23;8.73;;;;;;;7.87;100.00;100544.50;1647332;84;26184;-82
2021/11/19 02:55:52;;;;;;;11.08;8.45;;;;;;;7.87;100.00;100543.97;1667660;84;25767;-83
2021/11/19 02:58:28;;;;;;;10.32;8.93;;;;;;;7.87;100.00;100538.63;1637071;84;25957;-83
2021/11/19 03:01:21;;;;;;;10.43;9.13;;;;;;;7.88;100.00;100540.81;1636123;84;25882;-82
2021/11/19 03:03:54;;;;;;;10.58;9.48;;;;;;;7.87;100.00;100546.64;1665102;84;27542;-82
2021/11/19 03:06:21;;;;;;;12.33;10.00;;;;;;;7.89;100.00;100543.82;1664435;84;25982;-83
2021/11/19 03:08:48;;;;;;;12.03;9.88;;;;;;;7.90;100.00;100548.14;1618640;84;26029;-83
2021/11/19 03:11:15;;;;;;;11.25;9.95;;;;;;;7.92;100.00;100547.46;1655065;84;25879;-83
2021/11/19 03:13:43;;;;;;;11.80;10.13;;;;;;;7.93;100.00;100547.80;1620659;84;26001;-82
2021/11/19 03:16:10;;;;;;;10.30;8.80;;;;;;;7.94;100.00;100550.30;1666346;84;27577;-82
2021/11/19 03:18:38;;;;;;;11.35;9.78;;;;;;;7.94;100.00;100558.30;1641142;84;26055;-82
2021/11/19 03:21:12;;;;;;;10.08;9.03;;;;;;;7.96;100.00;100560.78;1640142;84;26333;-82
2021/11/19 03:23:39;;;;;;;10.85;9.45;;;;;;;7.97;100.00;100561.97;1648315;84;25971;-83
2021/11/19 03:26:08;;;;;;;10.68;8.85;;;;;;;7.98;100.00;100557.44;1665702;84;25930;-83
2021/11/19 03:28:36;;;;;;;11.65;9.28;;;;;;;8.00;100.00;100562.13;1643689;84;27157;-82
2021/11/19 03:31:08;;;;;;;11.12;8.90;;;;;;;8.00;100.00;100559.47;1658833;84;25369;-82
2021/11/19 03:33:40;;;;;;;11.40;8.63;;;;;;;8.02;100.00;100553.45;1638385;84;26910;-82
2021/11/19 03:36:10;;;;;;;9.93;8.50;;;;;;;8.03;100.00;100557.28;1694040;83;25833;-82
2021/11/19 03:38:42;;;;;;;10.48;8.75;;;;;;;8.04;100.00;100552.78;1629284;84;25959;-83
2021/11/19 03:41:11;;;;;;;9.98;8.73;;;;;;;8.06;100.00;100555.58;1662098;84;28418;-83
2021/11/19 03:43:46;;;;;;;11.00;9.50;;;;;;;8.07;100.00;100545.75;1663584;83;25822;-82
2021/11/19 03:46:19;;;;;;;10.65;9.00;;;;;;;8.07;100.00;100543.92;1678705;84;25897;-82
2021/11/19 03:48:49;;;;;;;11.50;9.75;;;;;;;8.08;100.00;100547.43;1647083;84;26405;-83
2021/11/19 03:51:21;;;;;;;11.73;9.65;;;;;;;8.10;100.00;100552.09;1650601;84;26048;-82
2021/11/19 03:53:50;;;;;;;10.32;9.28;;;;;;;8.09;100.00;100549.08;1672859;83;27489;-82
2021/11/19 03:56:18;;;;;;;11.83;9.98;;;;;;;8.11;100.00;100554.58;1695295;83;25877;-82
2021/11/19 03:58:45;;;;;;;10.65;9.55;;;;;;;8.12;100.00;100544.25;1626929;83;25881;-83
2021/11/19 04:01:24;;;;;;;11.05;9.50;;;;;;;8.13;100.00;100541.89;1643357;83;25936;-83
2021/11/19 04:03:52;;;;;;;13.25;10.72;;;;;;;8.15;100.00;100540.38;1669356;83;25917;-83
2021/11/19 04:06:21;;;;;;;11.15;9.55;;;;;;;8.16;100.00;100530.05;1691695;83;27491;-83
2021/11/19 04:08:49;;;;;;;9.78;8.78;;;;;;;8.18;100.00;100537.38;1667101;83;25369;-83
2021/11/19 04:11:19;;;;;;;11.33;8.90;;;;;;;8.19;100.00;100540.39;1657779;83;26268;-83
2021/11/19 04:13:47;;;;;;;10.82;9.73;;;;;;;8.19;100.00;100544.39;1662233;83;26448;-84
2021/11/19 04:16:19;;;;;;;8.48;7.65;;;;;;;8.20;100.00;100544.70;1675375;83;25874;-84
2021/11/19 04:18:47;;;;;;;10.58;9.03;;;;;;;8.21;100.00;100544.52;1650962;83;26866;-83
2021/11/19 04:21:19;;;;;;;8.93;7.75;;;;;;;8.22;100.00;100558.70;1682853;83;25906;-82
2021/11/19 04:23:49;;;;;;;10.38;9.18;;;;;;;8.25;100.00;100559.25;1664539;83;26080;-82
2021/11/19 04:26:18;;;;;;;10.60;9.38;;;;;;;8.27;100.00;100564.40;1687018;83;26641;-83
2021/11/19 04:28:46;;;;;;;11.10;9.83;;;;;;;8.29;100.00;100562.39;1652367;83;26021;-83
2021/11/19 04:31:28;;;;;;;12.47;9.98;;;;;;;8.30;100.00;100560.03;1667480;83;27733;-84
2021/11/19 04:33:56;;;;;;;11.95;10.75;;;;;;;8.32;100.00;100566.03;1692551;83;26598;-83
2021/11/19 04:36:25;;;;;;;8.80;7.90;;;;;;;8.32;100.00;100562.86;1650171;83;37902;-82
2021/11/19 04:38:53;;;;;;;10.68;9.15;;;;;;;8.33;100.00;100560.54;1675855;83;26066;-83
2021/11/19 04:41:20;;;;;;;12.40;10.18;;;;;;;8.35;100.00;100551.86;1672546;83;26476;-83
2021/11/19 04:43:48;;;;;;;11.08;9.90;;;;;;;8.37;100.00;100550.34;1698106;83;27470;-83
2021/11/19 04:46:15;;;;;;;12.45;11.10;;;;;;;8.39;100.00;100551.00;1693161;83;26026;-83
2021/11/19 04:48:43;;;;;;;12.05;10.80;;;;;;;8.40;100.00;100544.66;1650073;83;25489;-83
2021/11/19 04:51:19;;;;;;;13.38;11.97;;;;;;;8.42;100.00;100547.50;1642705;83;26187;-83
2021/11/19 04:53:46;;;;;;;12.75;10.85;;;;;;;8.42;100.00;100542.16;1668689;83;25933;-83
2021/11/19 04:56:15;;;;;;;13.15;10.48;;;;;;;8.45;100.00;100546.29;1689780;83;27138;-83
2021/11/19 04:58:43;;;;;;;12.85;11.48;;;;;;;8.44;100.00;100542.81;1651803;83;25860;-83
2021/11/19 05:01:16;;;;;;;11.97;10.48;;;;;;;8.45;100.00;100544.46;1634127;84;25757;-83
2021/11/19 05:04:04;;;;;;;11.85;10.70;;;;;;;8.47;100.00;100545.61;1606264;87;26820;-83
2021/11/19 05:06:32;;;;;;;12.25;11.05;;;;;;;8.47;100.00;100546.45;1603535;87;25445;-84
2021/11/19 05:09:01;;;;;;;11.65;10.45;;;;;;;8.50;100.00;100543.94;1563789;84;27820;-82
2021/11/19 05:11:39;;;;;;;12.03;10.72;;;;;;;8.52;100.00;100543.27;1599398;84;25385;-84
2021/11/19 05:14:08;;;;;;;12.75;11.45;;;;;;;8.53;100.00;100543.08;1671961;84;25356;-82
2021/11/19 05:16:36;;;;;;;13.60;11.83;;;;;;;8.55;100.00;100541.59;1670906;84;26053;-84
2021/11/19 05:19:04;;;;;;;12.63;11.33;;;;;;;8.57;100.00;100548.08;1621969;84;26121;-83
2021/11/19 05:21:34;;;;;;;14.15;11.50;;;;;;;8.57;100.00;100554.27;1644777;84;28212;-83
2021/11/19 05:24:02;;;;;;;13.10;10.95;;;;;;;8.60;100.00;100555.75;1645285;84;25410;-83
2021/11/19 05:26:30;;;;;;;13.88;12.20;;;;;;;8.61;100.00;100548.05;1667626;84;26429;-82
2021/11/19 05:28:59;;;;;;;12.55;11.30;;;;;;;8.63;100.00;100542.03;1642931;84;25798;-83
2021/11/19 05:31:27;;;;;;;12.23;10.90;;;;;;;8.64;100.00;100547.19;1641195;84;26070;-84
2021/11/19 05:33:55;;;;;;;13.25;11.95;;;;;;;8.65;100.00;100545.36;1644762;84;27438;-82
2021/11/19 05:36:22;;;;;;;13.20;10.55;;;;;;;8.66;100.00;100543.03;1663593;84;25918;-83
2021/11/19 05:38:50;;;;;;;13.13;11.18;;;;;;;8.67;100.00;100550.86;1627004;84;25829;-83
2021/11/19 05:41:22;;;;;;;11.60;10.32;;;;;;;8.68;100.00;100549.87;1618684;84;27782;-84
2021/11/19 05:43:52;;;;;;;12.40;10.78;;;;;;;8.71;100.00;100552.66;1671363;84;25858;-82
2021/11/19 05:46:40;;;;;;;12.73;11.30;;;;;;;8.72;100.00;100550.33;1666427;84;27531;-83
2021/11/19 05:49:17;;;;;;;12.37;11.10;;;;;;;8.73;100.00;100550.64;1656614;84;26493;-83
2021/11/19 05:51:49;;;;;;;12.45;10.90;;;;;;;8.75;100.00;100545.95;1645980;84;26644;-83
2021/11/19 05:54:19;;;;;;;12.53;10.80;;;;;;;8.74;100.00;100543.81;1671782;84;25909;-82
2021/11/19 05:56:48;;;;;;;13.33;11.93;;;;;;;8.76;100.00;100549.81;1674114;84;25947;-82
2021/11/19 05:59:17;;;;;;;13.72;12.33;;;;;;;8.76;100.00;100548.47;1649031;84;27486;-83
2021/11/19 06:02:07;;;;;;;13.68;12.07;;;;;;;8.77;100.00;100548.78;1637140;84;25930;-83
2021/11/19 06:04:37;;;;;;;11.97;10.78;;;;;;;8.77;100.00;100544.78;1668462;84;26291;-84
2021/11/19 06:07:07;;;;;;;13.32;11.95;;;;;;;8.78;100.00;100537.11;1659429;84;26640;-84
2021/11/19 06:09:51;;;;;;;17.45;12.40;;;;;;;8.78;100.00;100536.27;1648725;84;26172;-85
2021/11/19 06:12:26;;;;;;;16.23;13.55;;;;;;;8.78;100.00;100530.93;1670173;84;27171;-84
2021/11/19 06:15:01;;;;;;;14.58;12.23;;;;;;;8.79;100.00;100537.42;1655164;84;26612;-83
2021/11/19 06:17:34;;;;;;;13.58;12.05;;;;;;;8.80;100.00;100532.42;1676528;84;25900;-83
2021/11/19 06:20:17;;;;;;;14.80;11.78;;;;;;;8.81;100.00;100539.41;1672216;84;26863;-82
2021/11/19 06:22:51;;;;;;;14.20;12.45;;;;;;;8.80;100.00;100537.77;1619100;84;26765;-83
2021/11/19 06:25:24;;;;;;;16.90;14.10;;;;;;;8.83;100.00;100548.08;1668421;84;27548;-84
2021/11/19 06:27:54;;;;;;;14.07;12.35;;;;;;;8.84;100.00;100555.09;1673143;84;25885;-84
2021/11/19 06:30:23;;;;;;;14.83;12.25;;;;;;;8.86;100.00;100559.75;1605093;84;25922;-83
2021/11/19 06:32:50;;;;;;;14.20;12.25;;;;;;;8.87;100.00;100570.78;1593675;84;26498;-83
2021/11/19 06:35:18;;;;;;;19.17;15.65;;;;;;;8.88;100.00;100556.41;1665746;84;26024;-84
2021/11/19 06:37:47;;;;;;;16.90;15.05;;;;;;;8.91;100.00;100574.76;1662361;84;27487;-83
2021/11/19 06:40:24;;;;;;;17.32;14.53;;;;;;;8.94;100.00;100577.59;1625606;84;26212;-82
2021/11/19 06:43:10;;;;;;;15.68;13.48;;;;;;;8.96;100.00;100575.56;1614778;84;25741;-82
2021/11/19 06:45:55;;;;;;;16.23;14.07;;;;;;;8.98;100.00;100571.69;1668138;84;26616;-83
2021/11/19 06:48:33;;;;;;;18.73;14.45;;;;;;;9.01;100.00;100589.20;1669086;84;26573;-84
2021/11/19 06:51:21;;;;;;;14.70;11.25;;;;;;;9.04;100.00;100589.70;1624779;84;27599;-83
2021/11/19 06:53:57;;;;;;;14.73;13.18;;;;;;;9.07;100.00;100588.00;1621617;86;26624;-84
2021/11/19 06:56:44;;;;;;;17.05;14.30;;;;;;;9.08;100.00;100583.00;1592549;88;25835;-83
2021/11/19 06:59:13;;;;;;;14.03;12.53;;;;;;;9.11;100.00;100571.12;1598023;88;25914;-83
2021/11/19 07:01:41;;;;;;;15.13;12.30;;;;;;;9.11;100.00;100578.61;1596320;84;25986;-83
2021/11/19 07:04:08;;;;;;;15.00;12.55;;;;;;;9.14;100.00;100578.77;1623695;84;27622;-83
2021/11/19 07:06:36;;;;;;;14.40;11.78;;;;;;;9.15;100.00;100583.12;1665342;84;26208;-82
2021/11/19 07:09:07;;;;;;;15.05;12.73;;;;;;;9.16;100.00;100583.43;1664083;85;25839;-83
2021/11/19 07:11:35;;;;;;;15.13;13.08;;;;;;;9.16;100.00;100584.27;1640038;86;25965;-83
2021/11/19 07:14:02;;;;;;;19.15;15.23;;;;;;;9.18;100.00;100586.75;1624620;86;25950;-83
2021/11/19 07:16:32;;;;;;;21.15;17.45;;;;;;;9.19;100.00;100595.95;1665612;84;27691;-83
2021/11/19 07:18:59;;;;;;;19.65;15.13;;;;;;;9.21;100.00;100593.09;1671405;84;25929;-82
2021/11/19 07:21:28;;;;;;;15.43;13.68;;;;;;;9.23;100.00;100597.25;1671517;84;25940;-82
2021/11/19 07:23:56;;;;;;;16.55;13.95;;;;;;;9.27;100.00;100600.39;1614309;85;26566;-83
2021/11/19 07:26:23;;;;;;;23.15;15.70;;;;;;;9.28;100.00;100600.73;1675290;84;25345;-83
2021/11/19 07:28:51;;;;;;;15.83;12.75;;;;;;;9.30;100.00;100612.88;1678042;84;27531;-83
2021/11/19 07:31:36;;;;;;;15.38;13.15;;;;;;;9.31;100.00;100613.72;1633179;84;25943;-83
2021/11/19 07:34:24;;;;;;;17.12;13.60;;;;;;;9.32;100.00;100614.88;1566789;87;25962;-82
2021/11/19 07:36:59;;;;;;;15.30;12.98;;;;;;;9.34;100.00;100617.39;1604338;88;26470;-81
2021/11/19 07:39:34;;;;;;;14.43;12.93;;;;;;;9.35;100.00;100619.03;1616318;86;25930;-83
2021/11/19 07:42:03;;;;;;;15.72;13.25;;;;;;;9.36;100.00;100626.06;1646365;85;28337;-83
2021/11/19 07:44:48;;;;;;;16.55;13.03;;;;;;;9.39;100.00;100623.55;1640098;85;26689;-83
2021/11/19 07:47:20;;;;;;;15.93;12.33;;;;;;;9.39;100.00;100621.67;1666544;85;25939;-82
2021/11/19 07:49:47;;;;;;;14.47;12.03;;;;;;;9.41;100.00;100626.34;1663517;85;26478;-82
2021/11/19 07:52:17;;;;;;;15.38;13.18;;;;;;;9.45;100.00;100623.66;1636752;86;26032;-83
2021/11/19 07:54:44;;;;;;;16.93;12.75;;;;;;;9.47;100.00;100632.33;1637554;85;27195;-82
2021/11/19 07:57:12;;;;;;;15.70;12.15;;;;;;;9.50;100.00;100635.12;1667097;85;26571;-82
2021/11/19 07:59:40;;;;;;;13.28;11.25;;;;;;;9.52;100.00;100623.75;1661025;85;25907;-82
2021/11/19 08:02:08;;;;;;;13.35;11.95;;;;;;;9.54;100.00;100621.22;1604534;84;26030;-82
2021/11/19 08:04:36;;;;;;;12.82;11.55;;;;;;;9.57;100.00;100617.37;1630391;85;25811;-82
2021/11/19 08:07:07;;;;;;;13.48;11.60;;;;;;;9.59;100.00;100623.36;1661462;85;27461;-82
2021/11/19 08:09:48;;;;;;;15.15;10.80;;;;;;;9.60;100.00;100627.72;1664537;85;25862;-82
2021/11/19 08:12:17;;;;;;;13.25;11.08;;;;;;;9.60;100.00;100625.05;1621172;85;25944;-82
2021/11/19 08:14:46;;;;;;;12.93;10.93;;;;;;;9.61;100.00;100627.53;1660135;85;26927;-82
2021/11/19 08:17:30;;;;;;;11.73;10.55;;;;;;;9.62;100.00;100622.52;1649945;85;25860;-82
2021/11/19 08:20:00;;;;;;;11.75;10.30;;;;;;;9.62;100.00;100619.84;1663686;85;28206;-82
2021/11/19 08:22:28;;;;;;;13.18;11.78;;;;;;;9.63;100.00;100612.13;1639778;85;25809;-83
2021/11/19 08:24:58;;;;;;;14.80;12.35;;;;;;;9.65;100.00;100609.27;1668414;85;25831;-82
2021/11/19 08:27:31;;;;;;;17.23;11.88;;;;;;;9.66;100.00;100614.45;1658315;85;26587;-82
2021/11/19 08:30:02;;;;;;;13.93;11.63;;;;;;;9.68;100.00;100617.78;1657672;85;25871;-82
2021/11/19 08:32:29;;;;;;;11.85;10.65;;;;;;;9.69;100.00;100620.77;1631752;85;28251;-82
2021/11/19 08:34:57;;;;;;;14.90;12.50;;;;;;;9.70;100.00;100613.08;1662711;85;25889;-82
2021/11/19 08:37:27;;;;;;;15.23;13.60;;;;;;;9.73;100.00;100628.75;1633538;86;26177;-81
2021/11/19 08:39:55;;;;;;;14.07;12.13;;;;;;;9.76;100.00;100622.22;1639814;85;25884;-83
2021/11/19 08:42:23;;;;;;;14.00;12.30;;;;;;;9.76;100.00;100616.37;1650429;85;26525;-83
2021/11/19 08:44:51;;;;;;;12.95;11.57;;;;;;;9.77;100.00;100614.53;1639853;85;27582;-84
2021/11/19 08:47:21;;;;;;;12.00;10.50;;;;;;;9.79;100.00;100614.68;1627764;86;26017;-82
2021/11/19 08:49:52;;;;;;;11.30;10.20;;;;;;;9.80;100.00;100607.46;1642091;84;25787;-83
2021/11/19 08:52:21;;;;;;;11.15;9.95;;;;;;;9.82;100.00;100619.65;1648910;85;26459;-83
2021/11/19 08:54:50;;;;;;;12.63;10.85;;;;;;;9.83;100.00;100610.63;1660203;85;25762;-83
2021/11/19 08:57:22;;;;;;;13.65;9.55;;;;;;;9.85;100.00;100609.94;1651074;85;27607;-83
2021/11/19 08:59:50;;;;;;;12.85;10.63;;;;;;;9.87;100.00;100605.23;1615503;86;25888;-83
2021/11/19 09:02:22;;;;;;;12.07;10.23;;;;;;;9.88;100.00;100601.53;1648916;85;25894;-82
2021/11/19 09:04:49;;;;;;;11.63;9.58;;;;;;;9.89;100.00;100605.05;1663928;85;25825;-82
2021/11/19 09:07:18;;;;;;;12.53;9.48;;;;;;;9.90;100.00;100606.19;1649354;86;25879;-83
2021/11/19 09:09:45;;;;;;;10.60;9.50;;;;;;;9.93;100.00;100598.31;1620734;85;28229;-83
2021/11/19 09:12:14;;;;;;;12.35;10.53;;;;;;;9.94;100.00;100598.65;1649724;85;26043;-83
2021/11/19 09:14:42;;;;;;;13.93;12.10;;;;;;;9.96;100.00;100603.31;1661555;86;25990;-84
2021/11/19 09:17:29;;;;;;;15.48;12.73;;;;;;;9.97;100.00;100601.78;1658885;86;26587;-82
2021/11/19 09:20:01;;;;;;;13.95;11.00;;;;;;;10.00;100.00;100609.95;1628250;86;25901;-83
2021/11/19 09:23:14;;;;;;;11.55;10.35;;;;;;;10.01;100.00;100611.10;1640589;86;27462;-83
2021/11/19 09:25:45;;;;;;;12.33;10.68;;;;;;;10.03;100.00;100604.22;1658153;86;25900;-84
2021/11/19 09:28:13;;;;;;;;;;;;;;;10.04;100.00;100605.89;1665364;85;26640;-84
2021/11/19 09:30:44;;;;;;;14.00;11.88;;;;;;;10.06;100.00;100605.20;1646197;85;26494;-83
2021/11/19 09:33:16;;;;;;;14.35;12.58;;;;;;;10.07;100.00;100602.86;1633811;85;25945;-83
2021/11/19 09:35:44;;;;;;;15.03;13.03;;;;;;;10.08;100.00;100613.37;1665253;85;27493;-83
2021/11/19 09:38:13;;;;;;;13.32;11.80;;;;;;;10.11;100.00;100614.89;1600676;85;26642;-83
2021/11/19 09:40:58;;;;;;;12.15;10.28;;;;;;;10.11;100.00;100601.52;1665496;85;25803;-83
2021/11/19 09:43:36;;;;;;;10.80;9.15;;;;;;;10.12;100.00;100599.14;1636386;86;25864;-84
2021/11/19 09:46:26;;;;;;;12.03;10.65;;;;;;;10.15;100.00;100600.63;1679489;84;25867;-83
2021/11/19 09:49:32;;;;;;;12.45;10.45;;;;;;;10.16;100.00;100592.94;1634936;86;27080;-82
2021/11/19 09:52:20;;;;;;;28.02;21.50;;;;;;;10.16;100.00;100578.22;1658688;85;25987;-83
2021/11/19 09:55:41;;;;;;;19.02;17.05;;;;;;;10.17;100.00;100585.21;1668272;85;25884;-83
2021/11/19 09:58:14;;;;;;;;;;;;;;;10.18;100.00;100589.03;1664224;85;25775;-84
2021/11/19 10:01:29;;;;;;;9.75;8.63;;;;;;;10.18;100.00;100572.97;1603719;86;26136;-82
2021/11/19 10:04:29;;;;;;;9.65;8.53;;;;;;;10.18;100.00;100576.98;1669140;85;27646;-83
2021/11/19 10:07:28;;;;;;;20.75;16.48;;;;;;;10.19;100.00;100584.52;1665660;85;25850;-83
2021/11/19 10:10:32;;;;;;;19.98;18.00;;;;;;;10.22;100.00;100582.33;1651545;85;25854;-84
2021/11/19 10:13:48;;;;;;;17.37;15.75;;;;;;;10.23;100.00;100588.48;1628618;86;25916;-83
2021/11/19 10:16:38;;;;;;;20.12;18.20;;;;;;;10.23;100.00;100584.47;1647288;86;25341;-83
2021/11/19 10:19:11;;;;;;;12.80;11.50;;;;;;;10.24;100.00;100587.48;1674115;85;27280;-83
2021/11/19 10:21:52;;;;;;;14.53;12.90;;;;;;;10.25;100.00;100582.44;1629208;86;25906;-84
2021/11/19 10:25:05;;;;;;;13.98;12.53;;;;;;;10.26;100.00;100569.39;1653437;85;25718;-82
2021/11/19 10:27:37;;;;;;;22.93;18.25;;;;;;;10.28;100.00;100567.36;1637566;86;26290;-83
2021/11/19 10:30:40;;;;;;;13.85;11.20;;;;;;;10.29;100.00;100560.47;1664073;85;26918;-85
2021/11/19 10:33:27;;;;;;;14.35;12.28;;;;;;;10.30;100.00;100555.45;1639160;85;28199;-83
2021/11/19 10:36:26;;;;;;;14.30;12.82;;;;;;;10.32;100.00;100565.47;1651618;85;25845;-83
2021/11/19 10:39:16;;;;;;;42.85;28.35;;;;;;;10.34;100.00;100550.05;1641405;85;26010;-84
2021/11/19 10:42:29;;;;;;;16.97;13.43;;;;;;;10.36;100.00;100555.20;1661836;85;27435;-82
2021/11/19 10:45:17;;;;;;;16.55;14.90;;;;;;;10.37;100.00;100555.00;1653609;85;25731;-83
2021/11/19 10:48:20;;;;;;;16.42;14.50;;;;;;;10.38;100.00;100551.33;1673670;84;27476;-83
2021/11/19 10:51:25;;;;;;;17.65;14.93;;;;;;;10.40;100.00;100542.59;1657358;85;25842;-83
2021/11/19 10:54:37;;;;;;;19.42;14.78;;;;;;;10.43;100.00;100550.27;1655489;84;26597;-82
2021/11/19 10:57:30;;;;;;;13.30;11.57;;;;;;;10.44;100.00;100548.40;1636118;86;25920;-83
2021/11/19 11:00:14;;;;;;;14.60;10.00;;;;;;;10.46;100.00;100544.52;1644332;85;25338;-82
2021/11/19 11:02:54;;;;;;;15.13;12.18;;;;;;;10.48;100.00;100536.30;1644044;85;27561;-83
2021/11/19 11:05:39;;;;;;;24.07;16.37;;;;;;;10.50;100.00;100542.32;1658417;85;25858;-83
2021/11/19 11:08:30;;;;;;;13.98;10.88;;;;;;;10.52;100.00;100542.42;1634794;85;25903;-83
2021/11/19 11:11:27;;;;;;;13.00;10.93;;;;;;;10.55;100.00;100543.41;1629765;86;26508;-83
2021/11/19 11:14:07;;;;;;;14.00;10.75;;;;;;;10.58;100.00;100538.19;1681866;84;25882;-83
2021/11/19 11:16:45;;;;;;;12.58;10.40;;;;;;;10.60;100.00;100537.48;1663674;85;28348;-83
2021/11/19 11:19:17;;;;;;;11.43;10.23;;;;;;;10.63;100.00;100530.39;1632607;85;26012;-83
2021/11/19 11:22:05;;;;;;;11.45;10.15;;;;;;;10.65;100.00;100537.73;1643511;86;26139;-83
2021/11/19 11:25:02;;;;;;;10.05;8.78;;;;;;;10.68;100.00;100532.84;1640964;86;26412;-82
2021/11/19 11:27:41;;;;;;;9.03;7.90;;;;;;;10.69;100.00;100534.48;1663671;85;25788;-83
2021/11/19 11:30:40;;;;;;;8.70;7.83;;;;;;;10.72;100.00;100527.42;1622613;85;27452;-83
2021/11/19 11:33:24;;;;;;;8.75;7.95;;;;;;;10.76;100.00;100523.85;1662068;85;25966;-82
2021/11/19 11:36:11;;;;;;;9.20;7.72;;;;;;;10.80;100.00;100529.14;1631366;86;25604;-85
2021/11/19 11:38:57;;;;;;;8.50;6.58;;;;;;;10.83;100.00;100526.09;1666596;84;25832;-82
2021/11/19 11:41:44;;;;;;;6.92;6.05;;;;;;;10.86;100.00;100525.20;1632897;84;26028;-83
2021/11/19 11:44:26;;;;;;;6.97;6.20;;;;;;;10.90;100.00;100524.83;1649610;86;27540;-83
2021/11/19 11:47:05;;;;;;;7.37;6.60;;;;;;;10.94;100.00;100532.80;1629142;86;25958;-84
2021/11/19 11:49:46;;;;;;;12.28;11.08;;;;;;;10.97;100.00;100527.08;1654576;85;25988;-84